AfoVOS II — SV3346 — position and weather

sailwx.info

Track history (hours):
 
Tides and Currents Weather Stations Pressure Air Temp Water Temp Dewpoint Dewpoint Depression Visibility Wind Speed Wind Dir Waves Ship Positions

AfoVOS II

Last reported at 2018-Apr-21 08:43 UTC. Time now 2018-Apr-21 15:44 UTC.
Position N 37°06' E 025°22'.

Length 28 m; draft 3.5 m.

Type: Fishing. MMSI: 237699000.

Date/timePositionNaut miles runAvg speedWind from/ knotsBaromVisibWave heightAir tempDewpointWater temp
2018-Apr-21 08:43N 37°06' E 025°22'0 0.0
2018-Apr-21 08:30N 37°06' E 025°22'0 0.0
2018-Apr-21 08:00N 37°06' E 025°22'0 0.0
2018-Apr-21 07:30N 37°06' E 025°22'0 0.0
2018-Apr-21 07:00N 37°06' E 025°22'0 0.0
2018-Apr-21 06:30N 37°06' E 025°22'0 0.0
2018-Apr-21 06:00N 37°06' E 025°22'0 0.0
2018-Apr-21 05:30N 37°06' E 025°22'0 0.0
2018-Apr-21 05:00N 37°06' E 025°22'0 0.0
2018-Apr-21 04:30N 37°06' E 025°22'0 0.0
2018-Apr-21 04:00N 37°06' E 025°22'0 0.0
2018-Apr-20 13:50N 37°06' E 025°22'0 0.0
2018-Apr-20 13:30N 37°06' E 025°22'0 0.0
2018-Apr-20 13:00N 37°06' E 025°22'0 0.0
2018-Apr-20 12:30N 37°06' E 025°22'0 0.0
2018-Apr-20 12:00N 37°06' E 025°22'3 6.1
2018-Apr-20 11:31N 37°04' E 025°20'  
2018-Apr-18 06:38N 37°06' E 025°22'1 3.7
2018-Apr-18 06:30N 37°06' E 025°22'0 0.0
2018-Apr-18 06:00N 37°06' E 025°22'0 0.0
2018-Apr-18 05:31N 37°06' E 025°22'0 0.8
2018-Apr-18 05:01N 37°07' E 025°22'510.1
2018-Apr-18 04:30N 37°12' E 025°22'6 0.5
2018-Apr-17 16:26N 37°17' E 025°19'1 2.3
2018-Apr-17 16:00N 37°18' E 025°20'1 2.8
2018-Apr-17 15:30N 37°19' E 025°21'1 2.8
2018-Apr-17 15:00N 37°19' E 025°23'1 2.9
2018-Apr-17 14:30N 37°19' E 025°25'1 2.9
2018-Apr-17 14:01N 37°19' E 025°27'1 2.9
2018-Apr-17 13:30N 37°19' E 025°28'14 0.6
2018-Apr-16 14:21N 37°06' E 025°22'0 0.0
2018-Apr-15 12:40N 37°06' E 025°22'0 0.0
2018-Apr-15 12:31N 37°06' E 025°22'0 0.0
2018-Apr-15 11:58N 37°06' E 025°22'0 0.0
2018-Apr-15 11:30N 37°06' E 025°22'0 0.0
2018-Apr-15 11:00N 37°06' E 025°22'0 0.0
2018-Apr-15 10:31N 37°06' E 025°22'0 0.0
2018-Apr-15 09:59N 37°06' E 025°22'0 0.0
2018-Apr-15 09:30N 37°06' E 025°22'0 0.0
2018-Apr-15 09:00N 37°06' E 025°22'4 7.3
2018-Apr-15 08:30N 37°10' E 025°24'510.0
2018-Apr-15 08:00N 37°14' E 025°28'5 9.7
2018-Apr-15 07:30N 37°18' E 025°31'0 0.7
2018-Apr-15 06:58N 37°18' E 025°31'14 0.4
2018-Apr-13 16:12N 37°07' E 025°22'1 2.8
2018-Apr-13 16:00N 37°06' E 025°22'0 0.0
2018-Apr-13 15:30N 37°06' E 025°22'0 0.0
2018-Apr-13 15:00N 37°06' E 025°22'0 0.0
2018-Apr-13 14:29N 37°06' E 025°22'0 0.0
2018-Apr-13 14:00N 37°06' E 025°22'1 2.4
2018-Apr-13 13:30N 37°07' E 025°22'510.1
2018-Apr-13 13:01N 37°13' E 025°22'510.0
2018-Apr-13 12:30N 37°18' E 025°22'1 1.5
2018-Apr-13 12:00N 37°18' E 025°23'1 2.7
2018-Apr-13 11:30N 37°18' E 025°25'1 2.8
2018-Apr-13 11:00N 37°19' E 025°26'1 2.9
2018-Apr-13 10:30N 37°19' E 025°28'1 2.8
2018-Apr-13 09:59N 37°19' E 025°30'14 0.3
2018-Apr-11 15:59N 37°07' E 025°22'0 0.7
2018-Apr-11 15:30N 37°06' E 025°22'0 0.0
2018-Apr-11 15:00N 37°06' E 025°22'0 0.0
2018-Apr-11 14:30N 37°06' E 025°22'0 0.0
2018-Apr-11 13:59N 37°06' E 025°22'  
Track history (hours):
 
Tides and Currents Weather Stations Pressure Air Temp Water Temp Dewpoint Dewpoint Depression Visibility Wind Speed Wind Dir Waves Ship Positions

AfoVOS II

Last reported at 2018-Apr-21 08:43 UTC. Time now 2018-Apr-21 15:44 UTC.
Position N 37°06' E 025°22'.

Length 28 m; draft 3.5 m.

Type: Fishing. MMSI: 237699000.

Date/timePositionNaut miles runAvg speedWind from/ knotsBaromVisibWave heightAir tempDewpointWater temp
2018-Apr-21 08:43N 37°06' E 025°22'0 0.0
2018-Apr-21 08:30N 37°06' E 025°22'0 0.0
2018-Apr-21 08:00N 37°06' E 025°22'0 0.0
2018-Apr-21 07:30N 37°06' E 025°22'0 0.0
2018-Apr-21 07:00N 37°06' E 025°22'0 0.0
2018-Apr-21 06:30N 37°06' E 025°22'0 0.0
2018-Apr-21 06:00N 37°06' E 025°22'0 0.0
2018-Apr-21 05:30N 37°06' E 025°22'0 0.0
2018-Apr-21 05:00N 37°06' E 025°22'0 0.0
2018-Apr-21 04:30N 37°06' E 025°22'0 0.0
2018-Apr-21 04:00N 37°06' E 025°22'0 0.0
2018-Apr-20 13:50N 37°06' E 025°22'0 0.0
2018-Apr-20 13:30N 37°06' E 025°22'0 0.0
2018-Apr-20 13:00N 37°06' E 025°22'0 0.0
2018-Apr-20 12:30N 37°06' E 025°22'0 0.0
2018-Apr-20 12:00N 37°06' E 025°22'3 6.1
2018-Apr-20 11:31N 37°04' E 025°20'  
2018-Apr-18 06:38N 37°06' E 025°22'1 3.7
2018-Apr-18 06:30N 37°06' E 025°22'0 0.0
2018-Apr-18 06:00N 37°06' E 025°22'0 0.0
2018-Apr-18 05:31N 37°06' E 025°22'0 0.8
2018-Apr-18 05:01N 37°07' E 025°22'510.1
2018-Apr-18 04:30N 37°12' E 025°22'6 0.5
2018-Apr-17 16:26N 37°17' E 025°19'1 2.3
2018-Apr-17 16:00N 37°18' E 025°20'1 2.8
2018-Apr-17 15:30N 37°19' E 025°21'1 2.8
2018-Apr-17 15:00N 37°19' E 025°23'1 2.9
2018-Apr-17 14:30N 37°19' E 025°25'1 2.9
2018-Apr-17 14:01N 37°19' E 025°27'1 2.9
2018-Apr-17 13:30N 37°19' E 025°28'14 0.6
2018-Apr-16 14:21N 37°06' E 025°22'0 0.0
2018-Apr-15 12:40N 37°06' E 025°22'0 0.0
2018-Apr-15 12:31N 37°06' E 025°22'0 0.0
2018-Apr-15 11:58N 37°06' E 025°22'0 0.0
2018-Apr-15 11:30N 37°06' E 025°22'0 0.0
2018-Apr-15 11:00N 37°06' E 025°22'0 0.0
2018-Apr-15 10:31N 37°06' E 025°22'0 0.0
2018-Apr-15 09:59N 37°06' E 025°22'0 0.0
2018-Apr-15 09:30N 37°06' E 025°22'0 0.0
2018-Apr-15 09:00N 37°06' E 025°22'4 7.3
2018-Apr-15 08:30N 37°10' E 025°24'510.0
2018-Apr-15 08:00N 37°14' E 025°28'5 9.7
2018-Apr-15 07:30N 37°18' E 025°31'0 0.7
2018-Apr-15 06:58N 37°18' E 025°31'14 0.4
2018-Apr-13 16:12N 37°07' E 025°22'1 2.8
2018-Apr-13 16:00N 37°06' E 025°22'0 0.0
2018-Apr-13 15:30N 37°06' E 025°22'0 0.0
2018-Apr-13 15:00N 37°06' E 025°22'0 0.0
2018-Apr-13 14:29N 37°06' E 025°22'0 0.0
2018-Apr-13 14:00N 37°06' E 025°22'1 2.4
2018-Apr-13 13:30N 37°07' E 025°22'510.1
2018-Apr-13 13:01N 37°13' E 025°22'510.0
2018-Apr-13 12:30N 37°18' E 025°22'1 1.5
2018-Apr-13 12:00N 37°18' E 025°23'1 2.7
2018-Apr-13 11:30N 37°18' E 025°25'1 2.8
2018-Apr-13 11:00N 37°19' E 025°26'1 2.9
2018-Apr-13 10:30N 37°19' E 025°28'1 2.8
2018-Apr-13 09:59N 37°19' E 025°30'14 0.3
2018-Apr-11 15:59N 37°07' E 025°22'0 0.7
2018-Apr-11 15:30N 37°06' E 025°22'0 0.0
2018-Apr-11 15:00N 37°06' E 025°22'0 0.0
2018-Apr-11 14:30N 37°06' E 025°22'0 0.0
2018-Apr-11 13:59N 37°06' E 025°22'  

Dump ship's entire track history